sensor_id;sensor_type;location;lat;lon;timestamp;P1;durP1;ratioP1;P2;durP2;ratioP2
21647;SDS011;10985;54.182;7.890;2023-07-02T00:02:19;27.17;;;7.68;;
21647;SDS011;10985;54.182;7.890;2023-07-02T00:04:46;31.77;;;9.40;;
21647;SDS011;10985;54.182;7.890;2023-07-02T00:07:11;31.95;;;8.65;;
21647;SDS011;10985;54.182;7.890;2023-07-02T00:09:37;32.42;;;8.57;;
21647;SDS011;10985;54.182;7.890;2023-07-02T00:14:31;40.28;;;8.80;;
21647;SDS011;10985;54.182;7.890;2023-07-02T00:16:56;34.88;;;9.43;;
21647;SDS011;10985;54.182;7.890;2023-07-02T00:19:22;28.95;;;8.27;;
21647;SDS011;10985;54.182;7.890;2023-07-02T00:21:48;47.45;;;9.70;;
21647;SDS011;10985;54.182;7.890;2023-07-02T00:24:13;31.98;;;8.48;;
21647;SDS011;10985;54.182;7.890;2023-07-02T00:26:40;35.05;;;9.23;;
21647;SDS011;10985;54.182;7.890;2023-07-02T00:29:06;37.33;;;9.10;;
21647;SDS011;10985;54.182;7.890;2023-07-02T00:31:34;29.83;;;8.90;;
21647;SDS011;10985;54.182;7.890;2023-07-02T00:34:00;29.77;;;8.93;;
21647;SDS011;10985;54.182;7.890;2023-07-02T00:36:26;33.05;;;8.20;;
21647;SDS011;10985;54.182;7.890;2023-07-02T00:38:52;34.17;;;9.35;;
21647;SDS011;10985;54.182;7.890;2023-07-02T00:41:18;33.25;;;9.30;;
21647;SDS011;10985;54.182;7.890;2023-07-02T00:43:43;31.73;;;7.38;;
21647;SDS011;10985;54.182;7.890;2023-07-02T00:46:13;31.42;;;8.50;;
21647;SDS011;10985;54.182;7.890;2023-07-02T00:48:45;42.72;;;9.73;;
21647;SDS011;10985;54.182;7.890;2023-07-02T00:51:13;28.55;;;8.57;;
21647;SDS011;10985;54.182;7.890;2023-07-02T00:53:41;33.80;;;9.20;;
21647;SDS011;10985;54.182;7.890;2023-07-02T00:56:08;26.17;;;7.75;;
21647;SDS011;10985;54.182;7.890;2023-07-02T00:58:34;31.52;;;7.47;;
21647;SDS011;10985;54.182;7.890;2023-07-02T01:01:03;31.45;;;8.45;;
21647;SDS011;10985;54.182;7.890;2023-07-02T01:03:29;32.05;;;7.80;;
21647;SDS011;10985;54.182;7.890;2023-07-02T01:05:57;40.97;;;8.90;;
21647;SDS011;10985;54.182;7.890;2023-07-02T01:08:28;25.75;;;6.90;;
21647;SDS011;10985;54.182;7.890;2023-07-02T01:10:54;25.25;;;7.47;;
21647;SDS011;10985;54.182;7.890;2023-07-02T01:13:20;32.28;;;7.22;;
21647;SDS011;10985;54.182;7.890;2023-07-02T01:15:47;29.48;;;8.38;;
21647;SDS011;10985;54.182;7.890;2023-07-02T01:18:14;27.23;;;7.90;;
21647;SDS011;10985;54.182;7.890;2023-07-02T01:20:41;29.77;;;8.25;;
21647;SDS011;10985;54.182;7.890;2023-07-02T01:23:07;26.40;;;7.38;;
21647;SDS011;10985;54.182;7.890;2023-07-02T01:25:34;29.67;;;7.78;;
21647;SDS011;10985;54.182;7.890;2023-07-02T01:28:01;34.22;;;8.50;;
21647;SDS011;10985;54.182;7.890;2023-07-02T01:30:28;33.38;;;8.25;;
21647;SDS011;10985;54.182;7.890;2023-07-02T01:32:53;28.30;;;7.57;;
21647;SDS011;10985;54.182;7.890;2023-07-02T01:35:19;26.15;;;8.15;;
21647;SDS011;10985;54.182;7.890;2023-07-02T01:37:44;39.53;;;8.57;;
21647;SDS011;10985;54.182;7.890;2023-07-02T01:40:10;28.88;;;7.38;;
21647;SDS011;10985;54.182;7.890;2023-07-02T01:42:35;32.20;;;8.52;;
21647;SDS011;10985;54.182;7.890;2023-07-02T01:45:02;26.02;;;7.72;;
21647;SDS011;10985;54.182;7.890;2023-07-02T01:47:28;24.70;;;7.43;;
21647;SDS011;10985;54.182;7.890;2023-07-02T01:49:53;33.40;;;8.07;;
21647;SDS011;10985;54.182;7.890;2023-07-02T01:52:19;27.17;;;7.20;;
21647;SDS011;10985;54.182;7.890;2023-07-02T01:54:45;33.03;;;8.23;;
21647;SDS011;10985;54.182;7.890;2023-07-02T01:57:11;31.10;;;8.52;;
21647;SDS011;10985;54.182;7.890;2023-07-02T01:59:36;29.70;;;7.85;;
21647;SDS011;10985;54.182;7.890;2023-07-02T02:02:02;28.52;;;7.72;;
21647;SDS011;10985;54.182;7.890;2023-07-02T02:04:27;22.77;;;7.40;;
21647;SDS011;10985;54.182;7.890;2023-07-02T02:06:53;29.05;;;8.63;;
21647;SDS011;10985;54.182;7.890;2023-07-02T02:09:19;26.50;;;7.68;;
21647;SDS011;10985;54.182;7.890;2023-07-02T02:11:45;32.58;;;7.72;;
21647;SDS011;10985;54.182;7.890;2023-07-02T02:14:13;30.13;;;8.20;;
21647;SDS011;10985;54.182;7.890;2023-07-02T02:16:39;37.03;;;8.25;;
21647;SDS011;10985;54.182;7.890;2023-07-02T02:19:04;38.45;;;9.13;;
21647;SDS011;10985;54.182;7.890;2023-07-02T02:21:30;29.48;;;7.60;;
21647;SDS011;10985;54.182;7.890;2023-07-02T02:23:56;22.27;;;8.10;;
21647;SDS011;10985;54.182;7.890;2023-07-02T02:26:21;34.22;;;9.43;;
21647;SDS011;10985;54.182;7.890;2023-07-02T02:28:48;28.60;;;9.13;;
21647;SDS011;10985;54.182;7.890;2023-07-02T02:31:14;34.70;;;9.27;;
21647;SDS011;10985;54.182;7.890;2023-07-02T02:33:40;27.45;;;8.68;;
21647;SDS011;10985;54.182;7.890;2023-07-02T02:36:05;30.27;;;9.95;;
21647;SDS011;10985;54.182;7.890;2023-07-02T02:38:31;34.45;;;9.48;;
21647;SDS011;10985;54.182;7.890;2023-07-02T02:40:58;32.90;;;9.90;;
21647;SDS011;10985;54.182;7.890;2023-07-02T02:43:24;30.17;;;9.85;;
21647;SDS011;10985;54.182;7.890;2023-07-02T02:45:49;30.17;;;10.10;;
21647;SDS011;10985;54.182;7.890;2023-07-02T02:48:15;35.22;;;10.75;;
21647;SDS011;10985;54.182;7.890;2023-07-02T02:50:40;39.30;;;10.10;;
21647;SDS011;10985;54.182;7.890;2023-07-02T02:53:09;50.53;;;12.18;;
21647;SDS011;10985;54.182;7.890;2023-07-02T02:55:37;40.63;;;10.93;;
21647;SDS011;10985;54.182;7.890;2023-07-02T02:58:03;48.95;;;11.88;;
21647;SDS011;10985;54.182;7.890;2023-07-02T03:00:29;38.42;;;10.25;;
21647;SDS011;10985;54.182;7.890;2023-07-02T03:02:54;32.97;;;10.25;;
21647;SDS011;10985;54.182;7.890;2023-07-02T03:05:20;35.13;;;10.60;;
21647;SDS011;10985;54.182;7.890;2023-07-02T03:07:46;38.97;;;10.95;;
21647;SDS011;10985;54.182;7.890;2023-07-02T03:10:12;36.70;;;12.55;;
21647;SDS011;10985;54.182;7.890;2023-07-02T03:12:37;60.00;;;11.93;;
21647;SDS011;10985;54.182;7.890;2023-07-02T03:15:03;49.60;;;11.35;;
21647;SDS011;10985;54.182;7.890;2023-07-02T03:17:29;30.42;;;9.60;;
21647;SDS011;10985;54.182;7.890;2023-07-02T03:19:54;38.30;;;9.20;;
21647;SDS011;10985;54.182;7.890;2023-07-02T03:22:20;38.53;;;9.52;;
21647;SDS011;10985;54.182;7.890;2023-07-02T03:24:45;36.00;;;9.95;;
21647;SDS011;10985;54.182;7.890;2023-07-02T03:27:11;43.95;;;9.90;;
21647;SDS011;10985;54.182;7.890;2023-07-02T03:29:36;28.40;;;9.75;;
21647;SDS011;10985;54.182;7.890;2023-07-02T03:32:05;35.95;;;9.82;;
21647;SDS011;10985;54.182;7.890;2023-07-02T03:34:30;30.45;;;10.18;;
21647;SDS011;10985;54.182;7.890;2023-07-02T03:36:56;41.60;;;10.93;;
21647;SDS011;10985;54.182;7.890;2023-07-02T03:39:21;34.60;;;10.43;;
21647;SDS011;10985;54.182;7.890;2023-07-02T03:41:47;32.45;;;10.63;;
21647;SDS011;10985;54.182;7.890;2023-07-02T03:44:13;32.55;;;10.45;;
21647;SDS011;10985;54.182;7.890;2023-07-02T03:46:38;40.15;;;11.45;;
21647;SDS011;10985;54.182;7.890;2023-07-02T03:49:04;37.72;;;10.35;;
21647;SDS011;10985;54.182;7.890;2023-07-02T03:51:30;32.53;;;9.30;;
21647;SDS011;10985;54.182;7.890;2023-07-02T03:53:55;28.33;;;8.88;;
21647;SDS011;10985;54.182;7.890;2023-07-02T03:56:22;38.10;;;9.15;;
21647;SDS011;10985;54.182;7.890;2023-07-02T03:58:48;26.20;;;8.75;;
21647;SDS011;10985;54.182;7.890;2023-07-02T04:01:13;31.02;;;8.45;;
21647;SDS011;10985;54.182;7.890;2023-07-02T04:03:40;36.95;;;8.73;;
21647;SDS011;10985;54.182;7.890;2023-07-02T04:06:07;29.38;;;8.25;;
21647;SDS011;10985;54.182;7.890;2023-07-02T04:08:32;31.52;;;8.00;;
21647;SDS011;10985;54.182;7.890;2023-07-02T04:10:59;29.45;;;8.93;;
21647;SDS011;10985;54.182;7.890;2023-07-02T04:13:24;35.00;;;9.45;;
21647;SDS011;10985;54.182;7.890;2023-07-02T04:15:50;31.98;;;8.50;;
21647;SDS011;10985;54.182;7.890;2023-07-02T04:18:16;25.90;;;8.23;;
21647;SDS011;10985;54.182;7.890;2023-07-02T04:20:41;27.17;;;8.20;;
21647;SDS011;10985;54.182;7.890;2023-07-02T04:23:07;24.88;;;7.75;;
21647;SDS011;10985;54.182;7.890;2023-07-02T04:25:32;30.05;;;8.13;;
21647;SDS011;10985;54.182;7.890;2023-07-02T04:27:58;32.97;;;8.50;;
21647;SDS011;10985;54.182;7.890;2023-07-02T04:30:24;36.58;;;8.05;;
21647;SDS011;10985;54.182;7.890;2023-07-02T04:32:50;29.55;;;7.95;;
21647;SDS011;10985;54.182;7.890;2023-07-02T04:35:17;32.20;;;8.57;;
21647;SDS011;10985;54.182;7.890;2023-07-02T04:37:43;33.53;;;7.70;;
21647;SDS011;10985;54.182;7.890;2023-07-02T04:40:08;30.85;;;8.27;;
21647;SDS011;10985;54.182;7.890;2023-07-02T04:42:36;27.67;;;8.35;;
21647;SDS011;10985;54.182;7.890;2023-07-02T04:45:03;35.67;;;8.80;;
21647;SDS011;10985;54.182;7.890;2023-07-02T04:47:29;27.77;;;8.10;;
21647;SDS011;10985;54.182;7.890;2023-07-02T04:49:55;38.38;;;8.90;;
21647;SDS011;10985;54.182;7.890;2023-07-02T04:52:21;34.92;;;9.05;;
21647;SDS011;10985;54.182;7.890;2023-07-02T04:54:46;30.52;;;7.72;;
21647;SDS011;10985;54.182;7.890;2023-07-02T04:57:12;36.90;;;8.45;;
21647;SDS011;10985;54.182;7.890;2023-07-02T04:59:39;33.47;;;8.48;;
21647;SDS011;10985;54.182;7.890;2023-07-02T05:02:06;29.77;;;7.88;;
21647;SDS011;10985;54.182;7.890;2023-07-02T05:04:31;27.92;;;8.20;;
21647;SDS011;10985;54.182;7.890;2023-07-02T05:06:57;35.13;;;7.72;;
21647;SDS011;10985;54.182;7.890;2023-07-02T05:09:22;33.10;;;8.75;;
21647;SDS011;10985;54.182;7.890;2023-07-02T05:11:48;27.08;;;7.90;;
21647;SDS011;10985;54.182;7.890;2023-07-02T05:14:13;27.88;;;8.32;;
21647;SDS011;10985;54.182;7.890;2023-07-02T05:16:39;31.88;;;8.93;;
21647;SDS011;10985;54.182;7.890;2023-07-02T05:19:04;32.38;;;8.15;;
21647;SDS011;10985;54.182;7.890;2023-07-02T05:21:30;28.35;;;7.22;;
21647;SDS011;10985;54.182;7.890;2023-07-02T05:23:55;29.92;;;8.05;;
21647;SDS011;10985;54.182;7.890;2023-07-02T05:26:21;26.02;;;7.85;;
21647;SDS011;10985;54.182;7.890;2023-07-02T05:28:46;27.23;;;7.80;;
21647;SDS011;10985;54.182;7.890;2023-07-02T05:31:13;33.40;;;8.43;;
21647;SDS011;10985;54.182;7.890;2023-07-02T05:33:38;27.50;;;6.95;;
21647;SDS011;10985;54.182;7.890;2023-07-02T05:36:04;29.30;;;7.63;;
21647;SDS011;10985;54.182;7.890;2023-07-02T05:38:29;27.70;;;7.55;;
21647;SDS011;10985;54.182;7.890;2023-07-02T05:40:55;31.38;;;7.75;;
21647;SDS011;10985;54.182;7.890;2023-07-02T05:43:20;30.85;;;7.55;;
21647;SDS011;10985;54.182;7.890;2023-07-02T05:45:46;23.33;;;6.90;;
21647;SDS011;10985;54.182;7.890;2023-07-02T05:48:11;31.42;;;6.85;;
21647;SDS011;10985;54.182;7.890;2023-07-02T05:50:37;25.15;;;6.10;;
21647;SDS011;10985;54.182;7.890;2023-07-02T05:53:02;31.98;;;7.15;;
21647;SDS011;10985;54.182;7.890;2023-07-02T05:55:28;24.92;;;6.50;;
21647;SDS011;10985;54.182;7.890;2023-07-02T05:57:53;28.80;;;7.00;;
21647;SDS011;10985;54.182;7.890;2023-07-02T06:00:19;20.52;;;5.50;;
21647;SDS011;10985;54.182;7.890;2023-07-02T06:02:48;18.73;;;5.20;;
21647;SDS011;10985;54.182;7.890;2023-07-02T06:05:13;16.77;;;5.05;;
21647;SDS011;10985;54.182;7.890;2023-07-02T06:07:38;26.65;;;5.93;;
21647;SDS011;10985;54.182;7.890;2023-07-02T06:10:04;16.50;;;5.40;;
21647;SDS011;10985;54.182;7.890;2023-07-02T06:12:30;20.83;;;5.70;;
21647;SDS011;10985;54.182;7.890;2023-07-02T06:14:55;28.13;;;6.20;;
21647;SDS011;10985;54.182;7.890;2023-07-02T06:17:21;28.42;;;7.07;;
21647;SDS011;10985;54.182;7.890;2023-07-02T06:19:47;27.63;;;6.65;;
21647;SDS011;10985;54.182;7.890;2023-07-02T06:22:13;33.20;;;6.72;;
21647;SDS011;10985;54.182;7.890;2023-07-02T06:24:38;28.40;;;6.30;;
21647;SDS011;10985;54.182;7.890;2023-07-02T06:27:04;25.08;;;7.20;;
21647;SDS011;10985;54.182;7.890;2023-07-02T06:29:30;28.90;;;7.57;;
21647;SDS011;10985;54.182;7.890;2023-07-02T06:31:55;28.30;;;6.65;;
21647;SDS011;10985;54.182;7.890;2023-07-02T06:34:21;37.50;;;7.47;;
21647;SDS011;10985;54.182;7.890;2023-07-02T06:36:47;41.17;;;7.63;;
21647;SDS011;10985;54.182;7.890;2023-07-02T06:39:13;30.88;;;6.90;;
21647;SDS011;10985;54.182;7.890;2023-07-02T06:41:38;29.23;;;6.90;;
21647;SDS011;10985;54.182;7.890;2023-07-02T06:44:04;35.20;;;8.02;;
21647;SDS011;10985;54.182;7.890;2023-07-02T06:46:30;41.83;;;7.68;;
21647;SDS011;10985;54.182;7.890;2023-07-02T06:48:56;42.08;;;8.07;;
21647;SDS011;10985;54.182;7.890;2023-07-02T06:51:21;45.42;;;8.48;;
21647;SDS011;10985;54.182;7.890;2023-07-02T06:53:47;29.45;;;7.75;;
21647;SDS011;10985;54.182;7.890;2023-07-02T06:56:13;32.10;;;7.45;;
21647;SDS011;10985;54.182;7.890;2023-07-02T06:58:39;31.88;;;6.70;;
21647;SDS011;10985;54.182;7.890;2023-07-02T07:01:07;24.05;;;6.50;;
21647;SDS011;10985;54.182;7.890;2023-07-02T07:03:33;26.60;;;6.60;;
21647;SDS011;10985;54.182;7.890;2023-07-02T07:05:59;34.22;;;7.25;;
21647;SDS011;10985;54.182;7.890;2023-07-02T07:08:25;29.13;;;7.55;;
21647;SDS011;10985;54.182;7.890;2023-07-02T07:10:50;41.72;;;9.18;;
21647;SDS011;10985;54.182;7.890;2023-07-02T07:13:16;27.35;;;7.00;;
21647;SDS011;10985;54.182;7.890;2023-07-02T07:15:41;26.90;;;6.60;;
21647;SDS011;10985;54.182;7.890;2023-07-02T07:18:08;25.85;;;6.97;;
21647;SDS011;10985;54.182;7.890;2023-07-02T07:20:34;30.35;;;6.53;;
21647;SDS011;10985;54.182;7.890;2023-07-02T07:23:01;24.85;;;6.97;;
21647;SDS011;10985;54.182;7.890;2023-07-02T07:25:27;25.65;;;7.07;;
21647;SDS011;10985;54.182;7.890;2023-07-02T07:27:53;31.33;;;6.50;;
21647;SDS011;10985;54.182;7.890;2023-07-02T07:30:19;26.98;;;6.10;;
21647;SDS011;10985;54.182;7.890;2023-07-02T07:32:48;26.48;;;7.07;;
21647;SDS011;10985;54.182;7.890;2023-07-02T07:35:14;35.10;;;8.23;;
21647;SDS011;10985;54.182;7.890;2023-07-02T07:37:40;24.33;;;5.78;;
21647;SDS011;10985;54.182;7.890;2023-07-02T07:40:06;26.77;;;6.53;;
21647;SDS011;10985;54.182;7.890;2023-07-02T07:42:32;28.10;;;6.93;;
21647;SDS011;10985;54.182;7.890;2023-07-02T07:44:57;31.73;;;6.07;;
21647;SDS011;10985;54.182;7.890;2023-07-02T07:47:23;26.10;;;6.57;;
21647;SDS011;10985;54.182;7.890;2023-07-02T07:49:48;30.10;;;6.80;;
21647;SDS011;10985;54.182;7.890;2023-07-02T07:52:14;32.70;;;6.60;;
21647;SDS011;10985;54.182;7.890;2023-07-02T07:54:39;25.73;;;5.47;;
21647;SDS011;10985;54.182;7.890;2023-07-02T07:57:05;27.33;;;5.88;;
21647;SDS011;10985;54.182;7.890;2023-07-02T07:59:31;31.42;;;6.60;;
21647;SDS011;10985;54.182;7.890;2023-07-02T08:01:57;32.30;;;6.28;;
21647;SDS011;10985;54.182;7.890;2023-07-02T08:04:23;33.15;;;5.65;;
21647;SDS011;10985;54.182;7.890;2023-07-02T08:06:48;28.10;;;5.60;;
21647;SDS011;10985;54.182;7.890;2023-07-02T08:09:14;27.23;;;5.90;;
21647;SDS011;10985;54.182;7.890;2023-07-02T08:11:39;32.72;;;6.32;;
21647;SDS011;10985;54.182;7.890;2023-07-02T08:14:05;30.75;;;5.70;;
21647;SDS011;10985;54.182;7.890;2023-07-02T08:16:31;37.17;;;6.50;;
21647;SDS011;10985;54.182;7.890;2023-07-02T08:18:56;31.63;;;6.20;;
21647;SDS011;10985;54.182;7.890;2023-07-02T08:21:21;27.13;;;6.03;;
21647;SDS011;10985;54.182;7.890;2023-07-02T08:23:47;42.85;;;6.53;;
21647;SDS011;10985;54.182;7.890;2023-07-02T08:26:12;42.13;;;7.07;;
21647;SDS011;10985;54.182;7.890;2023-07-02T08:28:39;20.52;;;4.90;;
21647;SDS011;10985;54.182;7.890;2023-07-02T08:31:05;28.25;;;6.65;;
21647;SDS011;10985;54.182;7.890;2023-07-02T08:33:30;32.08;;;6.57;;
21647;SDS011;10985;54.182;7.890;2023-07-02T08:35:56;41.00;;;7.25;;
21647;SDS011;10985;54.182;7.890;2023-07-02T08:38:22;38.55;;;6.95;;
21647;SDS011;10985;54.182;7.890;2023-07-02T08:40:51;44.30;;;8.10;;
21647;SDS011;10985;54.182;7.890;2023-07-02T08:43:17;25.77;;;5.97;;
21647;SDS011;10985;54.182;7.890;2023-07-02T08:45:43;29.85;;;5.95;;
21647;SDS011;10985;54.182;7.890;2023-07-02T08:48:10;23.83;;;5.68;;
21647;SDS011;10985;54.182;7.890;2023-07-02T08:50:36;29.00;;;4.97;;
21647;SDS011;10985;54.182;7.890;2023-07-02T08:53:02;22.70;;;4.95;;
21647;SDS011;10985;54.182;7.890;2023-07-02T08:55:27;26.88;;;6.20;;
21647;SDS011;10985;54.182;7.890;2023-07-02T08:57:55;28.83;;;6.30;;
21647;SDS011;10985;54.182;7.890;2023-07-02T09:00:24;35.00;;;6.15;;
21647;SDS011;10985;54.182;7.890;2023-07-02T09:02:50;73.32;;;12.50;;
21647;SDS011;10985;54.182;7.890;2023-07-02T09:05:15;67.97;;;9.18;;
21647;SDS011;10985;54.182;7.890;2023-07-02T09:07:47;63.95;;;9.13;;
21647;SDS011;10985;54.182;7.890;2023-07-02T09:10:27;32.08;;;6.82;;
21647;SDS011;10985;54.182;7.890;2023-07-02T09:13:02;34.17;;;6.45;;
21647;SDS011;10985;54.182;7.890;2023-07-02T09:15:34;29.05;;;6.22;;
21647;SDS011;10985;54.182;7.890;2023-07-02T09:18:14;30.98;;;6.65;;
21647;SDS011;10985;54.182;7.890;2023-07-02T09:20:43;28.80;;;5.93;;
21647;SDS011;10985;54.182;7.890;2023-07-02T09:23:09;24.58;;;6.28;;
21647;SDS011;10985;54.182;7.890;2023-07-02T09:25:38;20.92;;;5.47;;
21647;SDS011;10985;54.182;7.890;2023-07-02T09:28:17;22.27;;;5.13;;
21647;SDS011;10985;54.182;7.890;2023-07-02T09:30:57;25.98;;;5.18;;
21647;SDS011;10985;54.182;7.890;2023-07-02T09:33:23;21.73;;;5.68;;
21647;SDS011;10985;54.182;7.890;2023-07-02T09:35:50;26.35;;;5.05;;
21647;SDS011;10985;54.182;7.890;2023-07-02T09:38:16;18.50;;;4.32;;
21647;SDS011;10985;54.182;7.890;2023-07-02T09:40:45;23.30;;;4.72;;
21647;SDS011;10985;54.182;7.890;2023-07-02T09:43:12;19.80;;;4.47;;
21647;SDS011;10985;54.182;7.890;2023-07-02T09:45:41;14.63;;;4.15;;
21647;SDS011;10985;54.182;7.890;2023-07-02T09:48:14;23.55;;;5.10;;
21647;SDS011;10985;54.182;7.890;2023-07-02T09:50:44;18.77;;;4.72;;
21647;SDS011;10985;54.182;7.890;2023-07-02T09:53:11;21.65;;;5.63;;
21647;SDS011;10985;54.182;7.890;2023-07-02T09:55:37;20.08;;;4.38;;
21647;SDS011;10985;54.182;7.890;2023-07-02T09:58:04;24.42;;;4.93;;
21647;SDS011;10985;54.182;7.890;2023-07-02T10:00:30;20.75;;;5.00;;
21647;SDS011;10985;54.182;7.890;2023-07-02T10:02:56;23.25;;;4.90;;
21647;SDS011;10985;54.182;7.890;2023-07-02T10:05:26;18.55;;;4.90;;
21647;SDS011;10985;54.182;7.890;2023-07-02T10:08:11;22.13;;;4.88;;
21647;SDS011;10985;54.182;7.890;2023-07-02T10:10:47;20.90;;;5.00;;
21647;SDS011;10985;54.182;7.890;2023-07-02T10:13:13;17.80;;;4.72;;
21647;SDS011;10985;54.182;7.890;2023-07-02T10:15:39;18.40;;;4.82;;
21647;SDS011;10985;54.182;7.890;2023-07-02T10:18:25;22.65;;;4.40;;
21647;SDS011;10985;54.182;7.890;2023-07-02T10:20:51;18.92;;;4.63;;
21647;SDS011;10985;54.182;7.890;2023-07-02T10:23:16;20.58;;;4.13;;
21647;SDS011;10985;54.182;7.890;2023-07-02T10:25:42;18.25;;;4.00;;
21647;SDS011;10985;54.182;7.890;2023-07-02T10:28:18;16.67;;;4.30;;
21647;SDS011;10985;54.182;7.890;2023-07-02T10:30:44;25.92;;;4.55;;
21647;SDS011;10985;54.182;7.890;2023-07-02T10:33:13;16.40;;;4.05;;
21647;SDS011;10985;54.182;7.890;2023-07-02T10:35:44;19.20;;;4.75;;
21647;SDS011;10985;54.182;7.890;2023-07-02T10:38:21;21.52;;;4.07;;
21647;SDS011;10985;54.182;7.890;2023-07-02T10:40:58;17.08;;;4.20;;
21647;SDS011;10985;54.182;7.890;2023-07-02T10:43:29;15.13;;;4.43;;
21647;SDS011;10985;54.182;7.890;2023-07-02T10:45:56;17.02;;;3.80;;
21647;SDS011;10985;54.182;7.890;2023-07-02T10:48:25;16.05;;;3.97;;
21647;SDS011;10985;54.182;7.890;2023-07-02T10:50:51;21.65;;;3.78;;
21647;SDS011;10985;54.182;7.890;2023-07-02T10:53:17;14.63;;;3.40;;
21647;SDS011;10985;54.182;7.890;2023-07-02T10:55:44;12.05;;;3.30;;
21647;SDS011;10985;54.182;7.890;2023-07-02T10:58:10;16.13;;;3.67;;
21647;SDS011;10985;54.182;7.890;2023-07-02T11:00:58;13.82;;;3.60;;
21647;SDS011;10985;54.182;7.890;2023-07-02T11:03:23;14.02;;;3.63;;
21647;SDS011;10985;54.182;7.890;2023-07-02T11:05:50;13.98;;;3.92;;
21647;SDS011;10985;54.182;7.890;2023-07-02T11:08:16;12.02;;;3.67;;
21647;SDS011;10985;54.182;7.890;2023-07-02T11:10:42;20.08;;;4.13;;
21647;SDS011;10985;54.182;7.890;2023-07-02T11:13:12;15.02;;;3.92;;
21647;SDS011;10985;54.182;7.890;2023-07-02T11:15:38;14.68;;;3.88;;
21647;SDS011;10985;54.182;7.890;2023-07-02T11:18:12;15.10;;;3.45;;
21647;SDS011;10985;54.182;7.890;2023-07-02T11:20:39;14.13;;;3.70;;
21647;SDS011;10985;54.182;7.890;2023-07-02T11:26:08;22.83;;;4.40;;
21647;SDS011;10985;54.182;7.890;2023-07-02T11:28:34;10.13;;;3.50;;
21647;SDS011;10985;54.182;7.890;2023-07-02T11:31:00;15.57;;;3.53;;
21647;SDS011;10985;54.182;7.890;2023-07-02T11:36:03;14.52;;;3.67;;
21647;SDS011;10985;54.182;7.890;2023-07-02T11:38:29;23.48;;;4.72;;
21647;SDS011;10985;54.182;7.890;2023-07-02T11:40:54;17.13;;;4.47;;
21647;SDS011;10985;54.182;7.890;2023-07-02T11:43:20;20.27;;;3.72;;
21647;SDS011;10985;54.182;7.890;2023-07-02T11:45:45;15.68;;;3.60;;
21647;SDS011;10985;54.182;7.890;2023-07-02T11:48:11;17.35;;;3.40;;
21647;SDS011;10985;54.182;7.890;2023-07-02T11:50:37;14.15;;;4.43;;
21647;SDS011;10985;54.182;7.890;2023-07-02T11:53:03;13.40;;;3.65;;
21647;SDS011;10985;54.182;7.890;2023-07-02T11:55:29;13.10;;;3.33;;
21647;SDS011;10985;54.182;7.890;2023-07-02T11:57:54;16.90;;;3.95;;
21647;SDS011;10985;54.182;7.890;2023-07-02T12:00:20;17.52;;;3.63;;
21647;SDS011;10985;54.182;7.890;2023-07-02T12:02:45;13.27;;;3.47;;
21647;SDS011;10985;54.182;7.890;2023-07-02T12:05:11;18.05;;;4.15;;
21647;SDS011;10985;54.182;7.890;2023-07-02T12:07:36;16.90;;;3.78;;
21647;SDS011;10985;54.182;7.890;2023-07-02T12:10:02;15.80;;;3.80;;
21647;SDS011;10985;54.182;7.890;2023-07-02T12:12:28;15.80;;;3.80;;
21647;SDS011;10985;54.182;7.890;2023-07-02T12:14:53;16.10;;;4.18;;
21647;SDS011;10985;54.182;7.890;2023-07-02T12:17:19;22.33;;;5.07;;
21647;SDS011;10985;54.182;7.890;2023-07-02T12:19:44;16.55;;;3.95;;
21647;SDS011;10985;54.182;7.890;2023-07-02T12:22:10;22.75;;;4.82;;
21647;SDS011;10985;54.182;7.890;2023-07-02T12:24:35;19.95;;;4.50;;
21647;SDS011;10985;54.182;7.890;2023-07-02T12:27:01;22.23;;;4.10;;
21647;SDS011;10985;54.182;7.890;2023-07-02T12:29:27;13.07;;;3.72;;
21647;SDS011;10985;54.182;7.890;2023-07-02T12:31:53;20.92;;;3.97;;
21647;SDS011;10985;54.182;7.890;2023-07-02T12:34:18;19.23;;;4.18;;
21647;SDS011;10985;54.182;7.890;2023-07-02T12:36:44;14.20;;;3.88;;
21647;SDS011;10985;54.182;7.890;2023-07-02T12:39:09;17.42;;;4.18;;
21647;SDS011;10985;54.182;7.890;2023-07-02T12:41:35;20.70;;;4.32;;
21647;SDS011;10985;54.182;7.890;2023-07-02T12:44:00;16.35;;;4.20;;
21647;SDS011;10985;54.182;7.890;2023-07-02T12:46:26;21.67;;;4.05;;
21647;SDS011;10985;54.182;7.890;2023-07-02T12:48:51;17.05;;;4.32;;
21647;SDS011;10985;54.182;7.890;2023-07-02T12:51:17;18.70;;;5.03;;
21647;SDS011;10985;54.182;7.890;2023-07-02T12:53:44;18.67;;;3.60;;
21647;SDS011;10985;54.182;7.890;2023-07-02T12:56:09;13.52;;;4.53;;
21647;SDS011;10985;54.182;7.890;2023-07-02T12:58:35;14.23;;;4.30;;
21647;SDS011;10985;54.182;7.890;2023-07-02T13:01:00;16.90;;;4.38;;
21647;SDS011;10985;54.182;7.890;2023-07-02T13:03:26;21.80;;;4.82;;
21647;SDS011;10985;54.182;7.890;2023-07-02T13:05:54;17.27;;;4.80;;
21647;SDS011;10985;54.182;7.890;2023-07-02T13:08:20;13.73;;;4.55;;
21647;SDS011;10985;54.182;7.890;2023-07-02T13:10:46;19.70;;;4.35;;
21647;SDS011;10985;54.182;7.890;2023-07-02T13:13:11;16.98;;;4.38;;
21647;SDS011;10985;54.182;7.890;2023-07-02T13:15:37;18.73;;;5.25;;
21647;SDS011;10985;54.182;7.890;2023-07-02T13:18:03;21.05;;;4.55;;
21647;SDS011;10985;54.182;7.890;2023-07-02T13:20:29;16.13;;;3.97;;
21647;SDS011;10985;54.182;7.890;2023-07-02T13:22:55;18.58;;;4.47;;
21647;SDS011;10985;54.182;7.890;2023-07-02T13:25:20;18.77;;;4.95;;
21647;SDS011;10985;54.182;7.890;2023-07-02T13:27:46;21.67;;;4.90;;
21647;SDS011;10985;54.182;7.890;2023-07-02T13:30:12;25.92;;;5.75;;
21647;SDS011;10985;54.182;7.890;2023-07-02T13:32:37;21.20;;;5.47;;
21647;SDS011;10985;54.182;7.890;2023-07-02T13:35:03;22.60;;;4.85;;
21647;SDS011;10985;54.182;7.890;2023-07-02T13:37:28;17.50;;;5.00;;
21647;SDS011;10985;54.182;7.890;2023-07-02T13:39:54;25.35;;;5.55;;
21647;SDS011;10985;54.182;7.890;2023-07-02T13:42:20;21.55;;;5.78;;
21647;SDS011;10985;54.182;7.890;2023-07-02T13:44:45;30.45;;;5.45;;
21647;SDS011;10985;54.182;7.890;2023-07-02T13:47:11;21.48;;;4.90;;
21647;SDS011;10985;54.182;7.890;2023-07-02T13:49:36;25.20;;;5.40;;
21647;SDS011;10985;54.182;7.890;2023-07-02T13:52:02;18.23;;;5.15;;
21647;SDS011;10985;54.182;7.890;2023-07-02T13:54:27;23.02;;;5.07;;
21647;SDS011;10985;54.182;7.890;2023-07-02T13:56:53;22.08;;;5.45;;
21647;SDS011;10985;54.182;7.890;2023-07-02T13:59:20;21.38;;;5.70;;
21647;SDS011;10985;54.182;7.890;2023-07-02T14:01:46;20.80;;;5.47;;
21647;SDS011;10985;54.182;7.890;2023-07-02T14:04:12;25.88;;;5.50;;
21647;SDS011;10985;54.182;7.890;2023-07-02T14:06:39;18.23;;;5.53;;
21647;SDS011;10985;54.182;7.890;2023-07-02T14:09:05;20.77;;;5.88;;
21647;SDS011;10985;54.182;7.890;2023-07-02T14:11:31;21.45;;;5.50;;
21647;SDS011;10985;54.182;7.890;2023-07-02T14:13:58;19.27;;;5.18;;
21647;SDS011;10985;54.182;7.890;2023-07-02T14:16:23;25.73;;;6.72;;
21647;SDS011;10985;54.182;7.890;2023-07-02T14:18:49;28.52;;;5.78;;
21647;SDS011;10985;54.182;7.890;2023-07-02T14:21:15;23.25;;;5.50;;
21647;SDS011;10985;54.182;7.890;2023-07-02T14:23:41;30.58;;;6.50;;
21647;SDS011;10985;54.182;7.890;2023-07-02T14:26:06;26.80;;;5.57;;
21647;SDS011;10985;54.182;7.890;2023-07-02T14:28:33;21.33;;;5.50;;
21647;SDS011;10985;54.182;7.890;2023-07-02T14:30:59;22.70;;;5.55;;
21647;SDS011;10985;54.182;7.890;2023-07-02T14:33:26;19.08;;;5.05;;
21647;SDS011;10985;54.182;7.890;2023-07-02T14:35:53;22.85;;;5.88;;
21647;SDS011;10985;54.182;7.890;2023-07-02T14:38:19;24.75;;;5.45;;